Terminal Aerodrome Forecast
Issued by NWS

Current Version | Previous Version | Text Only | Print | Product List | Glossary On
Versions: 1 2 3 4 5 6 7 8 9 10 11 12 13 14 15 16 17 18 19 20 21 22
945
FTUS43 KDLH 280346 AAB
TAFHIB
TAF AMD
KHIB 280346Z 2804/2824 08005KT 3SM BR SCT070
      TEMPO 2804/2808 1/4SM FG SCT005
     FM280800 00000KT 2SM BR SCT008
      TEMPO 2808/2812 1/4SM FG BKN002
     FM281400 08005KT P6SM SCT050=

USA.gov is the U.S. government's official web portal to all federal, state and local government web resources and services.